Abram, United Kingdom
Current Conditions -  °F | °C
As of 8:20 PM on Thursday 29 Jan 2015 (Local Time) from EGGP Reporting Station
Light Rain Light Rain  
Wind Chill: 32°   Ceiling: 3100
Heat Index: 41°   Visibility: 6mi
Dew Point: 36°   Wind: 20mph
Humidity: 81%   Direction: 300°WNW
Pressure: 28.82"   Gusts: NA
Location:  53.51°N, 2.59°W
Report Text: EGGP 292020Z 30017KT 9000 -RA FEW010 SCT022 BKN031 05/02 Q0976
Loading
Personal Weather Stations






























Interactive Weather Map New forecast layout! Learn more

10-Day Weather Forecast

Advertisements
Track Severe Weather on mobile